sensor_id;sensor_type;location;lat;lon;timestamp;P1;durP1;ratioP1;P2;durP2;ratioP2
78563;SDS011;67856;47.754;19.088;2023-03-23T00:01:20;8.63;;;5.57;;
78563;SDS011;67856;47.754;19.088;2023-03-23T00:04:22;10.27;;;5.43;;
78563;SDS011;67856;47.754;19.088;2023-03-23T00:07:27;9.43;;;4.95;;
78563;SDS011;67856;47.754;19.088;2023-03-23T00:10:29;9.45;;;5.60;;
78563;SDS011;67856;47.754;19.088;2023-03-23T00:13:33;8.90;;;5.57;;
78563;SDS011;67856;47.754;19.088;2023-03-23T00:16:35;11.60;;;5.90;;
78563;SDS011;67856;47.754;19.088;2023-03-23T00:19:38;9.43;;;5.23;;
78563;SDS011;67856;47.754;19.088;2023-03-23T00:22:46;9.65;;;6.07;;
78563;SDS011;67856;47.754;19.088;2023-03-23T00:25:47;11.80;;;5.45;;
78563;SDS011;67856;47.754;19.088;2023-03-23T00:28:50;10.35;;;6.28;;
78563;SDS011;67856;47.754;19.088;2023-03-23T00:31:52;8.93;;;5.67;;
78563;SDS011;67856;47.754;19.088;2023-03-23T00:34:54;8.90;;;5.07;;
78563;SDS011;67856;47.754;19.088;2023-03-23T00:37:57;8.25;;;4.90;;
78563;SDS011;67856;47.754;19.088;2023-03-23T00:41:01;7.18;;;4.32;;
78563;SDS011;67856;47.754;19.088;2023-03-23T00:44:04;9.20;;;5.07;;
78563;SDS011;67856;47.754;19.088;2023-03-23T00:47:05;7.77;;;4.27;;
78563;SDS011;67856;47.754;19.088;2023-03-23T00:50:08;6.93;;;4.13;;
78563;SDS011;67856;47.754;19.088;2023-03-23T00:53:10;8.27;;;4.65;;
78563;SDS011;67856;47.754;19.088;2023-03-23T00:56:11;8.68;;;4.90;;
78563;SDS011;67856;47.754;19.088;2023-03-23T00:59:13;8.50;;;4.43;;
78563;SDS011;67856;47.754;19.088;2023-03-23T01:02:15;8.83;;;4.70;;
78563;SDS011;67856;47.754;19.088;2023-03-23T01:05:17;7.83;;;4.47;;
78563;SDS011;67856;47.754;19.088;2023-03-23T01:08:19;7.07;;;4.20;;
78563;SDS011;67856;47.754;19.088;2023-03-23T01:11:22;6.80;;;4.13;;
78563;SDS011;67856;47.754;19.088;2023-03-23T01:14:24;6.82;;;4.45;;
78563;SDS011;67856;47.754;19.088;2023-03-23T01:17:25;8.57;;;4.83;;
78563;SDS011;67856;47.754;19.088;2023-03-23T01:20:27;8.00;;;4.70;;
78563;SDS011;67856;47.754;19.088;2023-03-23T01:23:29;8.60;;;4.80;;
78563;SDS011;67856;47.754;19.088;2023-03-23T01:26:31;7.78;;;4.22;;
78563;SDS011;67856;47.754;19.088;2023-03-23T01:29:33;6.85;;;4.20;;
78563;SDS011;67856;47.754;19.088;2023-03-23T01:32:35;8.43;;;4.73;;
78563;SDS011;67856;47.754;19.088;2023-03-23T01:35:37;6.50;;;4.33;;
78563;SDS011;67856;47.754;19.088;2023-03-23T01:38:40;8.80;;;5.15;;
78563;SDS011;67856;47.754;19.088;2023-03-23T01:41:46;7.30;;;4.60;;
78563;SDS011;67856;47.754;19.088;2023-03-23T01:48:04;8.80;;;4.80;;
78563;SDS011;67856;47.754;19.088;2023-03-23T01:51:11;8.73;;;4.27;;
78563;SDS011;67856;47.754;19.088;2023-03-23T01:54:14;6.82;;;4.15;;
78563;SDS011;67856;47.754;19.088;2023-03-23T01:57:21;8.27;;;4.70;;
78563;SDS011;67856;47.754;19.088;2023-03-23T02:00:24;9.40;;;4.85;;
78563;SDS011;67856;47.754;19.088;2023-03-23T02:03:28;6.90;;;3.73;;
78563;SDS011;67856;47.754;19.088;2023-03-23T02:06:32;8.13;;;4.87;;
78563;SDS011;67856;47.754;19.088;2023-03-23T02:09:47;7.28;;;4.50;;
78563;SDS011;67856;47.754;19.088;2023-03-23T02:12:48;9.15;;;4.47;;
78563;SDS011;67856;47.754;19.088;2023-03-23T02:40:39;7.13;;;4.37;;
78563;SDS011;67856;47.754;19.088;2023-03-23T02:43:42;8.45;;;4.85;;
78563;SDS011;67856;47.754;19.088;2023-03-23T02:46:45;8.27;;;5.10;;
78563;SDS011;67856;47.754;19.088;2023-03-23T02:49:48;7.60;;;4.72;;
78563;SDS011;67856;47.754;19.088;2023-03-23T02:52:52;7.97;;;4.57;;
78563;SDS011;67856;47.754;19.088;2023-03-23T02:55:54;8.07;;;4.93;;
78563;SDS011;67856;47.754;19.088;2023-03-23T02:59:00;7.53;;;4.50;;
78563;SDS011;67856;47.754;19.088;2023-03-23T03:11:43;9.43;;;5.23;;
78563;SDS011;67856;47.754;19.088;2023-03-23T03:14:53;8.70;;;4.80;;
78563;SDS011;67856;47.754;19.088;2023-03-23T03:21:06;9.13;;;5.55;;
78563;SDS011;67856;47.754;19.088;2023-03-23T03:24:11;9.33;;;5.00;;
78563;SDS011;67856;47.754;19.088;2023-03-23T03:27:16;8.43;;;5.23;;
78563;SDS011;67856;47.754;19.088;2023-03-23T03:30:22;8.80;;;5.05;;
78563;SDS011;67856;47.754;19.088;2023-03-23T03:33:28;9.35;;;5.80;;
78563;SDS011;67856;47.754;19.088;2023-03-23T03:36:33;10.02;;;5.93;;
78563;SDS011;67856;47.754;19.088;2023-03-23T03:39:38;8.90;;;5.47;;
78563;SDS011;67856;47.754;19.088;2023-03-23T03:42:41;9.37;;;5.80;;
78563;SDS011;67856;47.754;19.088;2023-03-23T03:45:43;9.18;;;5.78;;
78563;SDS011;67856;47.754;19.088;2023-03-23T03:48:46;8.10;;;5.25;;
78563;SDS011;67856;47.754;19.088;2023-03-23T03:51:47;8.80;;;5.18;;
78563;SDS011;67856;47.754;19.088;2023-03-23T03:54:54;9.47;;;5.17;;
78563;SDS011;67856;47.754;19.088;2023-03-23T03:57:57;8.30;;;5.23;;
78563;SDS011;67856;47.754;19.088;2023-03-23T04:01:38;9.55;;;5.40;;
78563;SDS011;67856;47.754;19.088;2023-03-23T04:04:39;8.18;;;4.63;;
78563;SDS011;67856;47.754;19.088;2023-03-23T04:07:42;8.18;;;4.38;;
78563;SDS011;67856;47.754;19.088;2023-03-23T04:10:43;8.50;;;5.23;;
78563;SDS011;67856;47.754;19.088;2023-03-23T04:13:45;7.40;;;4.30;;
78563;SDS011;67856;47.754;19.088;2023-03-23T04:16:55;6.57;;;4.32;;
78563;SDS011;67856;47.754;19.088;2023-03-23T04:19:58;6.72;;;3.92;;
78563;SDS011;67856;47.754;19.088;2023-03-23T04:23:01;7.05;;;4.72;;
78563;SDS011;67856;47.754;19.088;2023-03-23T04:26:04;8.97;;;5.13;;
78563;SDS011;67856;47.754;19.088;2023-03-23T04:29:15;6.90;;;4.30;;
78563;SDS011;67856;47.754;19.088;2023-03-23T04:32:26;7.13;;;4.60;;
78563;SDS011;67856;47.754;19.088;2023-03-23T04:35:29;6.53;;;4.20;;
78563;SDS011;67856;47.754;19.088;2023-03-23T04:38:43;6.80;;;4.32;;
78563;SDS011;67856;47.754;19.088;2023-03-23T04:41:51;7.43;;;4.00;;
78563;SDS011;67856;47.754;19.088;2023-03-23T04:45:16;5.93;;;3.83;;
78563;SDS011;67856;47.754;19.088;2023-03-23T04:48:31;8.40;;;4.43;;
78563;SDS011;67856;47.754;19.088;2023-03-23T04:51:53;7.72;;;4.45;;
78563;SDS011;67856;47.754;19.088;2023-03-23T04:55:05;6.82;;;4.32;;
78563;SDS011;67856;47.754;19.088;2023-03-23T04:58:10;7.00;;;4.30;;
78563;SDS011;67856;47.754;19.088;2023-03-23T05:01:19;5.40;;;4.20;;
78563;SDS011;67856;47.754;19.088;2023-03-23T05:04:32;7.03;;;4.20;;
78563;SDS011;67856;47.754;19.088;2023-03-23T05:07:45;6.15;;;3.97;;
78563;SDS011;67856;47.754;19.088;2023-03-23T05:10:51;8.15;;;4.40;;
78563;SDS011;67856;47.754;19.088;2023-03-23T05:13:55;6.53;;;4.10;;
78563;SDS011;67856;47.754;19.088;2023-03-23T05:16:57;6.77;;;4.70;;
78563;SDS011;67856;47.754;19.088;2023-03-23T05:20:00;6.07;;;4.00;;
78563;SDS011;67856;47.754;19.088;2023-03-23T05:23:10;6.40;;;4.57;;
78563;SDS011;67856;47.754;19.088;2023-03-23T05:26:14;8.23;;;5.03;;
78563;SDS011;67856;47.754;19.088;2023-03-23T05:29:16;5.03;;;3.40;;
78563;SDS011;67856;47.754;19.088;2023-03-23T05:32:29;6.33;;;4.13;;
78563;SDS011;67856;47.754;19.088;2023-03-23T05:35:37;6.70;;;4.00;;
78563;SDS011;67856;47.754;19.088;2023-03-23T05:38:39;6.57;;;4.70;;
78563;SDS011;67856;47.754;19.088;2023-03-23T05:41:46;9.43;;;5.82;;
78563;SDS011;67856;47.754;19.088;2023-03-23T05:44:49;10.37;;;6.10;;
78563;SDS011;67856;47.754;19.088;2023-03-23T05:47:51;11.57;;;7.63;;
78563;SDS011;67856;47.754;19.088;2023-03-23T05:50:55;12.55;;;7.50;;
78563;SDS011;67856;47.754;19.088;2023-03-23T05:53:58;16.67;;;7.78;;
78563;SDS011;67856;47.754;19.088;2023-03-23T05:57:00;13.93;;;8.80;;
78563;SDS011;67856;47.754;19.088;2023-03-23T06:00:21;14.63;;;8.20;;
78563;SDS011;67856;47.754;19.088;2023-03-23T06:03:31;16.43;;;8.30;;
78563;SDS011;67856;47.754;19.088;2023-03-23T06:06:38;16.55;;;8.23;;
78563;SDS011;67856;47.754;19.088;2023-03-23T06:09:44;15.20;;;9.07;;
78563;SDS011;67856;47.754;19.088;2023-03-23T06:12:48;13.93;;;8.40;;
78563;SDS011;67856;47.754;19.088;2023-03-23T06:16:04;16.97;;;8.83;;
78563;SDS011;67856;47.754;19.088;2023-03-23T06:19:20;17.00;;;8.20;;
78563;SDS011;67856;47.754;19.088;2023-03-23T06:22:38;16.38;;;8.30;;
78563;SDS011;67856;47.754;19.088;2023-03-23T06:25:44;13.48;;;8.07;;
78563;SDS011;67856;47.754;19.088;2023-03-23T06:28:47;16.38;;;8.50;;
78563;SDS011;67856;47.754;19.088;2023-03-23T06:31:49;14.17;;;8.17;;
78563;SDS011;67856;47.754;19.088;2023-03-23T06:34:55;12.43;;;8.23;;
78563;SDS011;67856;47.754;19.088;2023-03-23T06:38:18;16.88;;;8.00;;
78563;SDS011;67856;47.754;19.088;2023-03-23T06:41:26;14.18;;;7.38;;
78563;SDS011;67856;47.754;19.088;2023-03-23T06:44:28;13.10;;;7.85;;
78563;SDS011;67856;47.754;19.088;2023-03-23T06:47:29;16.60;;;8.50;;
78563;SDS011;67856;47.754;19.088;2023-03-23T06:50:31;17.40;;;8.27;;
78563;SDS011;67856;47.754;19.088;2023-03-23T06:53:36;17.73;;;8.27;;
78563;SDS011;67856;47.754;19.088;2023-03-23T06:56:39;20.02;;;8.73;;
78563;SDS011;67856;47.754;19.088;2023-03-23T06:59:43;21.88;;;9.40;;
78563;SDS011;67856;47.754;19.088;2023-03-23T07:02:45;26.00;;;8.90;;
78563;SDS011;67856;47.754;19.088;2023-03-23T07:05:47;38.63;;;9.37;;
78563;SDS011;67856;47.754;19.088;2023-03-23T07:08:50;31.80;;;9.95;;
78563;SDS011;67856;47.754;19.088;2023-03-23T07:11:56;31.30;;;8.90;;
78563;SDS011;67856;47.754;19.088;2023-03-23T07:15:11;33.67;;;8.40;;
78563;SDS011;67856;47.754;19.088;2023-03-23T07:18:16;24.27;;;9.60;;
78563;SDS011;67856;47.754;19.088;2023-03-23T07:21:20;28.23;;;9.27;;
78563;SDS011;67856;47.754;19.088;2023-03-23T07:24:22;28.27;;;10.00;;
78563;SDS011;67856;47.754;19.088;2023-03-23T07:27:38;25.80;;;9.88;;
78563;SDS011;67856;47.754;19.088;2023-03-23T07:30:41;25.73;;;9.80;;
78563;SDS011;67856;47.754;19.088;2023-03-23T07:33:44;35.90;;;11.03;;
78563;SDS011;67856;47.754;19.088;2023-03-23T07:36:46;30.77;;;10.63;;
78563;SDS011;67856;47.754;19.088;2023-03-23T07:39:49;37.65;;;11.30;;
78563;SDS011;67856;47.754;19.088;2023-03-23T07:42:52;47.75;;;11.60;;
78563;SDS011;67856;47.754;19.088;2023-03-23T07:46:17;34.17;;;11.07;;
78563;SDS011;67856;47.754;19.088;2023-03-23T07:49:25;31.37;;;11.20;;
78563;SDS011;67856;47.754;19.088;2023-03-23T07:52:36;35.67;;;11.23;;
78563;SDS011;67856;47.754;19.088;2023-03-23T07:55:39;34.72;;;11.15;;
78563;SDS011;67856;47.754;19.088;2023-03-23T07:59:07;28.85;;;10.20;;
78563;SDS011;67856;47.754;19.088;2023-03-23T08:02:11;35.05;;;10.68;;
78563;SDS011;67856;47.754;19.088;2023-03-23T08:05:26;35.50;;;10.23;;
78563;SDS011;67856;47.754;19.088;2023-03-23T08:08:46;32.30;;;10.50;;
78563;SDS011;67856;47.754;19.088;2023-03-23T08:12:06;28.63;;;9.48;;
78563;SDS011;67856;47.754;19.088;2023-03-23T08:15:34;35.45;;;9.32;;
78563;SDS011;67856;47.754;19.088;2023-03-23T08:18:38;28.10;;;9.00;;
78563;SDS011;67856;47.754;19.088;2023-03-23T08:21:40;29.17;;;9.47;;
78563;SDS011;67856;47.754;19.088;2023-03-23T08:24:41;32.23;;;9.33;;
78563;SDS011;67856;47.754;19.088;2023-03-23T08:28:01;27.95;;;8.80;;
78563;SDS011;67856;47.754;19.088;2023-03-23T08:31:32;29.55;;;8.27;;
78563;SDS011;67856;47.754;19.088;2023-03-23T08:34:56;28.95;;;8.90;;
78563;SDS011;67856;47.754;19.088;2023-03-23T08:38:34;27.07;;;8.43;;
78563;SDS011;67856;47.754;19.088;2023-03-23T08:42:00;21.63;;;8.47;;
78563;SDS011;67856;47.754;19.088;2023-03-23T08:45:22;30.77;;;8.60;;
78563;SDS011;67856;47.754;19.088;2023-03-23T08:49:03;27.65;;;8.60;;
78563;SDS011;67856;47.754;19.088;2023-03-23T08:52:40;24.65;;;8.30;;
78563;SDS011;67856;47.754;19.088;2023-03-23T08:56:07;26.67;;;8.53;;
78563;SDS011;67856;47.754;19.088;2023-03-23T08:59:28;24.07;;;8.03;;
78563;SDS011;67856;47.754;19.088;2023-03-23T09:02:36;26.88;;;8.10;;
78563;SDS011;67856;47.754;19.088;2023-03-23T09:05:50;19.98;;;7.57;;
78563;SDS011;67856;47.754;19.088;2023-03-23T09:08:57;21.75;;;7.15;;
78563;SDS011;67856;47.754;19.088;2023-03-23T09:11:59;22.20;;;7.67;;
78563;SDS011;67856;47.754;19.088;2023-03-23T09:15:02;21.33;;;7.57;;
78563;SDS011;67856;47.754;19.088;2023-03-23T09:18:09;17.52;;;7.97;;
78563;SDS011;67856;47.754;19.088;2023-03-23T09:21:10;16.80;;;7.63;;
78563;SDS011;67856;47.754;19.088;2023-03-23T09:24:11;18.10;;;7.20;;
78563;SDS011;67856;47.754;19.088;2023-03-23T09:27:13;28.53;;;7.93;;
78563;SDS011;67856;47.754;19.088;2023-03-23T09:30:14;19.67;;;7.13;;
78563;SDS011;67856;47.754;19.088;2023-03-23T09:33:15;19.98;;;7.50;;
78563;SDS011;67856;47.754;19.088;2023-03-23T09:36:17;19.23;;;7.32;;
78563;SDS011;67856;47.754;19.088;2023-03-23T09:39:22;22.65;;;7.47;;
78563;SDS011;67856;47.754;19.088;2023-03-23T09:42:38;21.23;;;7.13;;
78563;SDS011;67856;47.754;19.088;2023-03-23T09:49:25;14.75;;;6.93;;
78563;SDS011;67856;47.754;19.088;2023-03-23T09:52:32;20.75;;;6.80;;
78563;SDS011;67856;47.754;19.088;2023-03-23T09:55:44;26.50;;;7.22;;
78563;SDS011;67856;47.754;19.088;2023-03-23T10:02:04;28.43;;;7.07;;
78563;SDS011;67856;47.754;19.088;2023-03-23T10:08:39;26.30;;;6.80;;
78563;SDS011;67856;47.754;19.088;2023-03-23T10:11:56;20.60;;;6.75;;
78563;SDS011;67856;47.754;19.088;2023-03-23T10:15:14;31.57;;;7.03;;
78563;SDS011;67856;47.754;19.088;2023-03-23T10:21:51;32.03;;;6.93;;
78563;SDS011;67856;47.754;19.088;2023-03-23T10:25:03;20.70;;;5.95;;
78563;SDS011;67856;47.754;19.088;2023-03-23T10:28:16;34.67;;;6.60;;
78563;SDS011;67856;47.754;19.088;2023-03-23T10:31:22;24.93;;;6.43;;
78563;SDS011;67856;47.754;19.088;2023-03-23T10:34:32;22.93;;;6.27;;
78563;SDS011;67856;47.754;19.088;2023-03-23T10:37:47;19.80;;;5.85;;
78563;SDS011;67856;47.754;19.088;2023-03-23T10:40:56;22.30;;;6.00;;
78563;SDS011;67856;47.754;19.088;2023-03-23T10:44:00;25.63;;;6.55;;
78563;SDS011;67856;47.754;19.088;2023-03-23T10:47:05;26.00;;;6.07;;
78563;SDS011;67856;47.754;19.088;2023-03-23T10:50:22;29.10;;;6.73;;
78563;SDS011;67856;47.754;19.088;2023-03-23T10:53:45;19.20;;;5.70;;
78563;SDS011;67856;47.754;19.088;2023-03-23T10:56:50;21.83;;;5.75;;
78563;SDS011;67856;47.754;19.088;2023-03-23T10:59:57;21.92;;;6.18;;
78563;SDS011;67856;47.754;19.088;2023-03-23T11:03:20;21.27;;;5.90;;
78563;SDS011;67856;47.754;19.088;2023-03-23T11:06:30;21.63;;;5.80;;
78563;SDS011;67856;47.754;19.088;2023-03-23T11:09:39;16.48;;;5.82;;
78563;SDS011;67856;47.754;19.088;2023-03-23T11:12:56;19.00;;;5.60;;
78563;SDS011;67856;47.754;19.088;2023-03-23T11:15:58;18.92;;;5.45;;
78563;SDS011;67856;47.754;19.088;2023-03-23T11:19:15;21.93;;;5.00;;
78563;SDS011;67856;47.754;19.088;2023-03-23T11:22:28;19.77;;;5.47;;
78563;SDS011;67856;47.754;19.088;2023-03-23T11:25:30;21.13;;;5.20;;
78563;SDS011;67856;47.754;19.088;2023-03-23T11:28:32;21.55;;;5.30;;
78563;SDS011;67856;47.754;19.088;2023-03-23T11:31:41;13.15;;;5.20;;
78563;SDS011;67856;47.754;19.088;2023-03-23T11:34:48;12.90;;;4.90;;
78563;SDS011;67856;47.754;19.088;2023-03-23T11:37:56;21.10;;;5.40;;
78563;SDS011;67856;47.754;19.088;2023-03-23T11:40:59;16.38;;;5.25;;
78563;SDS011;67856;47.754;19.088;2023-03-23T11:44:09;19.92;;;4.95;;
78563;SDS011;67856;47.754;19.088;2023-03-23T11:47:17;20.40;;;5.00;;
78563;SDS011;67856;47.754;19.088;2023-03-23T11:50:29;23.63;;;5.03;;
78563;SDS011;67856;47.754;19.088;2023-03-23T11:56:54;12.45;;;5.18;;
78563;SDS011;67856;47.754;19.088;2023-03-23T11:59:56;27.10;;;5.75;;
78563;SDS011;67856;47.754;19.088;2023-03-23T12:03:27;18.48;;;5.70;;
78563;SDS011;67856;47.754;19.088;2023-03-23T12:23:17;23.63;;;5.50;;
78563;SDS011;67856;47.754;19.088;2023-03-23T12:26:25;21.87;;;5.27;;
78563;SDS011;67856;47.754;19.088;2023-03-23T12:29:34;20.85;;;5.05;;
78563;SDS011;67856;47.754;19.088;2023-03-23T12:46:03;15.93;;;4.75;;
78563;SDS011;67856;47.754;19.088;2023-03-23T12:49:25;19.02;;;4.60;;
78563;SDS011;67856;47.754;19.088;2023-03-23T12:52:46;18.50;;;4.90;;
78563;SDS011;67856;47.754;19.088;2023-03-23T12:59:48;16.43;;;4.77;;
78563;SDS011;67856;47.754;19.088;2023-03-23T13:09:40;26.40;;;4.95;;
78563;SDS011;67856;47.754;19.088;2023-03-23T13:12:48;24.63;;;4.83;;
78563;SDS011;67856;47.754;19.088;2023-03-23T13:15:55;22.27;;;4.63;;
78563;SDS011;67856;47.754;19.088;2023-03-23T13:22:21;24.80;;;4.78;;
78563;SDS011;67856;47.754;19.088;2023-03-23T13:25:39;24.85;;;4.80;;
78563;SDS011;67856;47.754;19.088;2023-03-23T13:35:35;26.02;;;4.82;;
78563;SDS011;67856;47.754;19.088;2023-03-23T13:38:38;17.17;;;4.47;;
78563;SDS011;67856;47.754;19.088;2023-03-23T13:41:47;19.85;;;4.55;;
78563;SDS011;67856;47.754;19.088;2023-03-23T13:48:39;20.10;;;4.30;;
78563;SDS011;67856;47.754;19.088;2023-03-23T13:51:59;19.25;;;4.63;;
78563;SDS011;67856;47.754;19.088;2023-03-23T13:55:47;21.55;;;4.80;;
78563;SDS011;67856;47.754;19.088;2023-03-23T13:58:30;23.42;;;5.28;;
78563;SDS011;67856;47.754;19.088;2023-03-23T14:01:36;17.17;;;4.27;;
78563;SDS011;67856;47.754;19.088;2023-03-23T14:04:42;20.00;;;4.63;;
78563;SDS011;67856;47.754;19.088;2023-03-23T14:07:51;24.60;;;5.13;;
78563;SDS011;67856;47.754;19.088;2023-03-23T14:10:56;18.50;;;3.85;;
78563;SDS011;67856;47.754;19.088;2023-03-23T14:14:07;22.55;;;4.20;;
78563;SDS011;67856;47.754;19.088;2023-03-23T14:20:24;20.63;;;4.53;;
78563;SDS011;67856;47.754;19.088;2023-03-23T14:23:28;16.48;;;4.22;;
78563;SDS011;67856;47.754;19.088;2023-03-23T14:26:34;14.48;;;4.10;;
78563;SDS011;67856;47.754;19.088;2023-03-23T14:29:36;16.48;;;4.65;;
78563;SDS011;67856;47.754;19.088;2023-03-23T14:32:38;22.30;;;5.07;;
78563;SDS011;67856;47.754;19.088;2023-03-23T14:35:40;17.87;;;4.00;;
78563;SDS011;67856;47.754;19.088;2023-03-23T14:38:58;11.82;;;3.83;;
78563;SDS011;67856;47.754;19.088;2023-03-23T14:42:05;15.13;;;3.85;;
78563;SDS011;67856;47.754;19.088;2023-03-23T14:45:12;18.02;;;4.40;;
78563;SDS011;67856;47.754;19.088;2023-03-23T14:48:16;15.77;;;3.87;;
78563;SDS011;67856;47.754;19.088;2023-03-23T14:51:18;21.07;;;4.07;;
78563;SDS011;67856;47.754;19.088;2023-03-23T14:54:21;15.43;;;3.58;;
78563;SDS011;67856;47.754;19.088;2023-03-23T14:57:27;15.05;;;3.67;;
78563;SDS011;67856;47.754;19.088;2023-03-23T15:00:31;10.77;;;3.55;;
78563;SDS011;67856;47.754;19.088;2023-03-23T15:03:35;21.17;;;4.10;;
78563;SDS011;67856;47.754;19.088;2023-03-23T15:06:43;14.90;;;3.87;;
78563;SDS011;67856;47.754;19.088;2023-03-23T15:09:46;19.52;;;3.65;;
78563;SDS011;67856;47.754;19.088;2023-03-23T15:12:48;14.63;;;3.42;;
78563;SDS011;67856;47.754;19.088;2023-03-23T15:15:51;25.98;;;4.60;;
78563;SDS011;67856;47.754;19.088;2023-03-23T15:19:05;19.27;;;3.37;;
78563;SDS011;67856;47.754;19.088;2023-03-23T15:22:15;16.73;;;3.60;;
78563;SDS011;67856;47.754;19.088;2023-03-23T15:25:31;18.45;;;3.83;;
78563;SDS011;67856;47.754;19.088;2023-03-23T15:28:39;21.25;;;4.00;;
78563;SDS011;67856;47.754;19.088;2023-03-23T15:31:42;27.63;;;4.18;;
78563;SDS011;67856;47.754;19.088;2023-03-23T15:34:45;22.60;;;3.80;;
78563;SDS011;67856;47.754;19.088;2023-03-23T15:37:48;23.93;;;3.97;;
78563;SDS011;67856;47.754;19.088;2023-03-23T15:40:52;22.70;;;4.00;;
78563;SDS011;67856;47.754;19.088;2023-03-23T15:43:55;21.05;;;4.35;;
78563;SDS011;67856;47.754;19.088;2023-03-23T15:47:04;27.52;;;3.88;;
78563;SDS011;67856;47.754;19.088;2023-03-23T15:50:18;28.47;;;4.47;;
78563;SDS011;67856;47.754;19.088;2023-03-23T15:53:27;24.60;;;3.70;;
78563;SDS011;67856;47.754;19.088;2023-03-23T15:56:29;19.27;;;3.58;;
78563;SDS011;67856;47.754;19.088;2023-03-23T15:59:32;17.80;;;3.60;;
78563;SDS011;67856;47.754;19.088;2023-03-23T16:02:34;20.85;;;3.97;;
78563;SDS011;67856;47.754;19.088;2023-03-23T16:05:37;18.10;;;3.60;;
78563;SDS011;67856;47.754;19.088;2023-03-23T16:08:40;20.17;;;3.90;;
78563;SDS011;67856;47.754;19.088;2023-03-23T16:11:55;20.38;;;3.72;;
78563;SDS011;67856;47.754;19.088;2023-03-23T16:14:57;16.77;;;3.63;;
78563;SDS011;67856;47.754;19.088;2023-03-23T16:18:00;17.08;;;3.38;;
78563;SDS011;67856;47.754;19.088;2023-03-23T16:21:03;21.67;;;3.83;;
78563;SDS011;67856;47.754;19.088;2023-03-23T16:24:05;11.73;;;3.73;;
78563;SDS011;67856;47.754;19.088;2023-03-23T16:27:09;15.18;;;3.35;;
78563;SDS011;67856;47.754;19.088;2023-03-23T16:30:16;17.17;;;3.40;;
78563;SDS011;67856;47.754;19.088;2023-03-23T16:33:20;16.13;;;3.15;;
78563;SDS011;67856;47.754;19.088;2023-03-23T16:36:23;26.67;;;3.87;;
78563;SDS011;67856;47.754;19.088;2023-03-23T16:39:25;19.30;;;3.47;;
78563;SDS011;67856;47.754;19.088;2023-03-23T16:42:28;20.35;;;3.90;;
78563;SDS011;67856;47.754;19.088;2023-03-23T16:45:30;22.55;;;3.63;;
78563;SDS011;67856;47.754;19.088;2023-03-23T16:48:33;17.25;;;3.72;;
78563;SDS011;67856;47.754;19.088;2023-03-23T16:51:35;24.47;;;4.00;;
78563;SDS011;67856;47.754;19.088;2023-03-23T16:54:38;20.33;;;3.97;;
78563;SDS011;67856;47.754;19.088;2023-03-23T16:57:40;23.70;;;3.50;;
78563;SDS011;67856;47.754;19.088;2023-03-23T17:00:46;13.27;;;3.50;;
78563;SDS011;67856;47.754;19.088;2023-03-23T17:03:49;12.48;;;4.13;;
78563;SDS011;67856;47.754;19.088;2023-03-23T17:06:52;20.90;;;3.80;;
78563;SDS011;67856;47.754;19.088;2023-03-23T17:09:55;23.47;;;4.00;;
78563;SDS011;67856;47.754;19.088;2023-03-23T17:12:57;15.95;;;3.63;;
78563;SDS011;67856;47.754;19.088;2023-03-23T17:16:00;12.02;;;3.28;;
78563;SDS011;67856;47.754;19.088;2023-03-23T17:19:02;17.35;;;3.63;;
78563;SDS011;67856;47.754;19.088;2023-03-23T17:22:05;13.03;;;3.70;;
78563;SDS011;67856;47.754;19.088;2023-03-23T17:25:08;14.23;;;3.47;;
78563;SDS011;67856;47.754;19.088;2023-03-23T17:28:11;20.20;;;3.85;;
78563;SDS011;67856;47.754;19.088;2023-03-23T17:31:14;16.92;;;3.55;;
78563;SDS011;67856;47.754;19.088;2023-03-23T17:34:17;12.20;;;3.70;;
78563;SDS011;67856;47.754;19.088;2023-03-23T17:37:20;17.73;;;3.20;;
78563;SDS011;67856;47.754;19.088;2023-03-23T17:40:23;18.87;;;3.40;;
78563;SDS011;67856;47.754;19.088;2023-03-23T17:43:26;15.48;;;3.92;;
78563;SDS011;67856;47.754;19.088;2023-03-23T17:46:28;11.95;;;4.00;;
78563;SDS011;67856;47.754;19.088;2023-03-23T17:49:31;10.73;;;3.60;;
78563;SDS011;67856;47.754;19.088;2023-03-23T17:52:33;13.13;;;3.43;;
78563;SDS011;67856;47.754;19.088;2023-03-23T17:55:36;15.77;;;4.10;;
78563;SDS011;67856;47.754;19.088;2023-03-23T17:58:41;16.83;;;4.30;;
78563;SDS011;67856;47.754;19.088;2023-03-23T18:01:44;12.95;;;4.60;;
78563;SDS011;67856;47.754;19.088;2023-03-23T18:04:50;13.95;;;4.20;;
78563;SDS011;67856;47.754;19.088;2023-03-23T18:07:53;11.63;;;4.30;;
78563;SDS011;67856;47.754;19.088;2023-03-23T18:10:56;15.87;;;4.07;;
78563;SDS011;67856;47.754;19.088;2023-03-23T18:13:59;12.73;;;4.63;;
78563;SDS011;67856;47.754;19.088;2023-03-23T18:17:02;15.57;;;4.13;;
78563;SDS011;67856;47.754;19.088;2023-03-23T18:20:05;12.68;;;4.03;;
78563;SDS011;67856;47.754;19.088;2023-03-23T18:23:09;9.80;;;4.20;;
78563;SDS011;67856;47.754;19.088;2023-03-23T18:26:12;12.23;;;3.83;;
78563;SDS011;67856;47.754;19.088;2023-03-23T18:29:15;12.05;;;4.20;;
78563;SDS011;67856;47.754;19.088;2023-03-23T18:32:18;12.07;;;4.20;;
78563;SDS011;67856;47.754;19.088;2023-03-23T18:35:21;10.98;;;3.85;;
78563;SDS011;67856;47.754;19.088;2023-03-23T18:38:23;12.47;;;4.87;;
78563;SDS011;67856;47.754;19.088;2023-03-23T18:41:26;10.67;;;4.30;;
78563;SDS011;67856;47.754;19.088;2023-03-23T18:44:29;8.13;;;3.60;;
78563;SDS011;67856;47.754;19.088;2023-03-23T18:47:32;13.68;;;4.05;;
78563;SDS011;67856;47.754;19.088;2023-03-23T18:50:35;16.17;;;4.43;;
78563;SDS011;67856;47.754;19.088;2023-03-23T18:53:38;12.03;;;4.33;;
78563;SDS011;67856;47.754;19.088;2023-03-23T18:56:40;11.03;;;3.83;;
78563;SDS011;67856;47.754;19.088;2023-03-23T18:59:43;8.20;;;4.03;;
78563;SDS011;67856;47.754;19.088;2023-03-23T19:02:45;13.57;;;3.80;;
78563;SDS011;67856;47.754;19.088;2023-03-23T19:05:56;12.82;;;3.70;;
78563;SDS011;67856;47.754;19.088;2023-03-23T19:09:00;12.67;;;4.83;;
78563;SDS011;67856;47.754;19.088;2023-03-23T19:12:03;10.43;;;3.57;;
78563;SDS011;67856;47.754;19.088;2023-03-23T19:15:06;9.63;;;3.80;;
78563;SDS011;67856;47.754;19.088;2023-03-23T19:18:09;6.95;;;3.30;;
78563;SDS011;67856;47.754;19.088;2023-03-23T19:21:11;13.77;;;4.15;;
78563;SDS011;67856;47.754;19.088;2023-03-23T19:24:20;10.57;;;3.20;;
78563;SDS011;67856;47.754;19.088;2023-03-23T19:27:22;11.27;;;3.83;;
78563;SDS011;67856;47.754;19.088;2023-03-23T19:30:25;9.70;;;3.88;;
78563;SDS011;67856;47.754;19.088;2023-03-23T19:33:28;8.88;;;3.58;;
78563;SDS011;67856;47.754;19.088;2023-03-23T19:36:30;9.20;;;3.90;;
78563;SDS011;67856;47.754;19.088;2023-03-23T19:39:33;6.37;;;3.43;;
78563;SDS011;67856;47.754;19.088;2023-03-23T19:42:37;7.43;;;3.47;;
78563;SDS011;67856;47.754;19.088;2023-03-23T19:45:41;9.25;;;4.00;;
78563;SDS011;67856;47.754;19.088;2023-03-23T19:48:44;9.30;;;4.30;;
78563;SDS011;67856;47.754;19.088;2023-03-23T19:51:47;7.55;;;3.60;;
78563;SDS011;67856;47.754;19.088;2023-03-23T19:54:50;10.90;;;3.70;;
78563;SDS011;67856;47.754;19.088;2023-03-23T19:57:53;10.50;;;3.70;;
78563;SDS011;67856;47.754;19.088;2023-03-23T20:00:58;6.55;;;3.45;;
78563;SDS011;67856;47.754;19.088;2023-03-23T20:04:01;9.48;;;3.88;;
78563;SDS011;67856;47.754;19.088;2023-03-23T20:07:06;8.05;;;3.63;;
78563;SDS011;67856;47.754;19.088;2023-03-23T20:10:09;11.13;;;3.80;;
78563;SDS011;67856;47.754;19.088;2023-03-23T20:13:12;8.00;;;3.63;;